Time;durP1;ratioP1;P1;durP2;ratioP2;P2;SDS_P1;SDS_P2;PMS_P1;PMS_P2;Temp;Humidity;BMP_temperature;BMP_pressure;BME280_temperature;BME280_humidity;BME280_pressure;Samples;Min_cycle;Max_cycle;Signal;HPM_P1;HPM_P2
2023/09/17 00:02:17;;;;;;;29.60;23.58;;;18.80;99.90;;;;;;5085516;28;20030;-76
2023/09/17 00:04:43;;;;;;;32.00;24.40;;;18.80;99.90;;;;;;5080815;28;20550;-76
2023/09/17 00:07:09;;;;;;;30.85;24.02;;;18.80;99.90;;;;;;5071554;28;20448;-76
2023/09/17 00:09:35;;;;;;;30.40;24.85;;;18.80;99.90;;;;;;5084523;28;20048;-77
2023/09/17 00:12:01;;;;;;;29.80;23.05;;;18.80;99.90;;;;;;5076604;28;20055;-77
2023/09/17 00:14:27;;;;;;;29.48;24.23;;;18.70;99.90;;;;;;5091011;28;20024;-77
2023/09/17 00:16:52;;;;;;;32.75;25.00;;;18.70;99.90;;;;;;5075042;28;20044;-77
2023/09/17 00:19:19;;;;;;;30.48;24.38;;;18.60;99.90;;;;;;5082607;28;20030;-76
2023/09/17 00:21:45;;;;;;;29.88;24.27;;;18.60;99.90;;;;;;5090184;28;20397;-76
2023/09/17 00:24:11;;;;;;;28.77;24.10;;;18.60;99.90;;;;;;5075780;28;20101;-76
2023/09/17 00:26:37;;;;;;;29.45;25.02;;;18.60;99.90;;;;;;5088966;28;20016;-76
2023/09/17 00:29:03;;;;;;;28.45;24.13;;;18.60;99.90;;;;;;5086688;28;20875;-76
2023/09/17 00:31:29;;;;;;;28.35;23.67;;;18.50;99.90;;;;;;5082554;28;20020;-76
2023/09/17 00:33:54;;;;;;;29.08;23.60;;;18.50;99.90;;;;;;5088250;28;20028;-76
2023/09/17 00:36:20;;;;;;;32.00;24.80;;;18.50;99.90;;;;;;5088145;28;20514;-76
2023/09/17 00:38:46;;;;;;;30.08;24.58;;;18.50;99.90;;;;;;5076372;28;20520;-76
2023/09/17 00:41:12;;;;;;;29.45;25.00;;;18.50;99.90;;;;;;5076058;28;20008;-76
2023/09/17 00:43:38;;;;;;;30.63;24.33;;;18.40;99.90;;;;;;5090253;28;20042;-76
2023/09/17 00:46:04;;;;;;;30.60;24.67;;;18.40;99.90;;;;;;5090818;28;20446;-76
2023/09/17 00:48:31;;;;;;;30.33;24.77;;;18.40;99.90;;;;;;5080486;28;20024;-76
2023/09/17 00:50:57;;;;;;;30.00;24.10;;;18.40;99.90;;;;;;5086448;28;20020;-76
2023/09/17 00:53:24;;;;;;;27.50;23.23;;;18.30;99.90;;;;;;5082183;28;20020;-76
2023/09/17 00:55:50;;;;;;;28.80;24.23;;;18.30;99.90;;;;;;5081269;28;20033;-76
2023/09/17 00:58:16;;;;;;;30.15;24.33;;;18.30;99.90;;;;;;5090442;28;20024;-76
2023/09/17 01:00:43;;;;;;;29.33;23.45;;;18.40;99.90;;;;;;5089828;28;20553;-76
2023/09/17 01:03:09;;;;;;;29.17;23.15;;;18.30;99.90;;;;;;5079650;28;20506;-76
2023/09/17 01:05:40;;;;;;;27.95;22.67;;;18.30;99.90;;;;;;5076832;28;20379;-76
2023/09/17 01:08:06;;;;;;;28.85;23.52;;;18.30;99.90;;;;;;5093272;28;20013;-76
2023/09/17 01:10:34;;;;;;;27.65;24.25;;;18.30;99.90;;;;;;5082716;28;20094;-76
2023/09/17 01:13:01;;;;;;;25.95;21.52;;;18.30;99.90;;;;;;5087298;28;20013;-76
2023/09/17 01:15:27;;;;;;;27.60;22.50;;;18.30;99.90;;;;;;5089946;28;20016;-76
2023/09/17 01:17:54;;;;;;;26.17;22.73;;;18.30;99.90;;;;;;5087962;28;20475;-76
2023/09/17 01:20:25;;;;;;;27.55;22.20;;;18.30;99.90;;;;;;5085347;28;20020;-76
2023/09/17 01:23:13;;;;;;;26.27;22.17;;;18.30;99.90;;;;;;5093818;28;20027;-76
2023/09/17 01:25:50;;;;;;;27.55;21.63;;;18.30;99.90;;;;;;5076282;28;20029;-76
2023/09/17 01:28:16;;;;;;;26.33;21.20;;;18.20;99.90;;;;;;5081841;28;20050;-76
2023/09/17 01:30:42;;;;;;;27.63;22.00;;;18.30;99.90;;;;;;5081697;28;20016;-76
2023/09/17 01:33:10;;;;;;;26.80;22.10;;;18.30;99.90;;;;;;5076770;28;20107;-77
2023/09/17 01:36:13;;;;;;;26.33;21.85;;;18.20;99.90;;;;;;5081994;28;20050;-76
2023/09/17 01:38:45;;;;;;;26.27;22.52;;;18.30;99.90;;;;;;5083021;28;20040;-76
2023/09/17 01:41:11;;;;;;;26.85;21.02;;;18.20;99.90;;;;;;5093854;28;20020;-76
2023/09/17 01:43:38;;;;;;;29.23;21.30;;;18.20;99.90;;;;;;5093546;28;20467;-76
2023/09/17 01:46:05;;;;;;;26.85;21.73;;;18.20;99.90;;;;;;5079012;28;20371;-76
2023/09/17 01:48:32;;;;;;;27.98;22.48;;;18.20;99.90;;;;;;5085395;28;20016;-76
2023/09/17 01:50:59;;;;;;;25.65;21.02;;;18.20;99.90;;;;;;5088484;28;20424;-76
2023/09/17 01:53:25;;;;;;;26.88;21.27;;;18.20;99.90;;;;;;5083168;28;20020;-76
2023/09/17 01:55:52;;;;;;;27.05;20.25;;;18.20;99.90;;;;;;5093053;28;20023;-76
2023/09/17 01:58:19;;;;;;;26.65;21.15;;;18.20;99.90;;;;;;5090881;28;20391;-76
2023/09/17 02:00:44;;;;;;;25.95;20.63;;;18.20;99.90;;;;;;5088299;28;20036;-76
2023/09/17 02:03:10;;;;;;;26.35;20.30;;;18.20;99.90;;;;;;5075568;28;20047;-76
2023/09/17 02:05:35;;;;;;;24.13;19.90;;;18.20;99.90;;;;;;5089505;28;20047;-76
2023/09/17 02:08:01;;;;;;;24.60;19.23;;;18.20;99.90;;;;;;5088559;28;20025;-76
2023/09/17 02:10:27;;;;;;;29.92;22.08;;;18.10;99.90;;;;;;5086330;28;20101;-77
2023/09/17 02:12:52;;;;;;;28.45;22.27;;;18.10;99.90;;;;;;5079214;28;20020;-76
2023/09/17 02:15:19;;;;;;;25.88;20.90;;;18.10;99.90;;;;;;5085358;28;20037;-76
2023/09/17 02:17:45;;;;;;;28.83;20.33;;;18.10;99.90;;;;;;5085994;28;20023;-77
2023/09/17 02:20:11;;;;;;;25.63;21.08;;;18.10;99.90;;;;;;5087456;28;20031;-77
2023/09/17 02:22:39;;;;;;;25.92;19.83;;;18.10;99.90;;;;;;5084131;28;20455;-75
2023/09/17 02:25:06;;;;;;;29.20;23.45;;;18.10;99.90;;;;;;5092745;28;20012;-75
2023/09/17 02:27:32;;;;;;;26.33;20.95;;;18.10;99.90;;;;;;5082971;28;20047;-75
2023/09/17 02:29:58;;;;;;;23.45;19.60;;;18.10;99.90;;;;;;5078358;28;20442;-75
2023/09/17 02:32:23;;;;;;;26.20;20.38;;;18.10;99.90;;;;;;5092718;28;20171;-74
2023/09/17 02:34:49;;;;;;;23.25;19.92;;;18.10;99.90;;;;;;5091791;28;20027;-76
2023/09/17 02:37:15;;;;;;;26.83;20.27;;;18.10;99.90;;;;;;5084622;28;20140;-75
2023/09/17 02:39:40;;;;;;;25.42;20.35;;;18.10;99.90;;;;;;5073654;28;20079;-75
2023/09/17 02:42:06;;;;;;;22.90;19.10;;;18.10;99.90;;;;;;5085006;28;20053;-75
2023/09/17 02:44:32;;;;;;;27.63;19.65;;;18.10;99.90;;;;;;5080891;28;20304;-75
2023/09/17 02:46:57;;;;;;;24.60;19.08;;;18.10;99.90;;;;;;5073013;28;20031;-76
2023/09/17 02:49:23;;;;;;;23.70;19.45;;;18.10;99.90;;;;;;5087072;28;20074;-75
2023/09/17 02:51:50;;;;;;;26.08;20.70;;;18.20;99.90;;;;;;5092073;28;20012;-75
2023/09/17 02:54:15;;;;;;;24.40;19.35;;;18.10;99.90;;;;;;5089671;28;20032;-75
2023/09/17 02:56:42;;;;;;;23.42;19.63;;;18.10;99.90;;;;;;5076524;28;20084;-75
2023/09/17 02:59:07;;;;;;;25.58;19.83;;;18.20;99.90;;;;;;5091903;28;20068;-75
2023/09/17 03:01:35;;;;;;;24.42;19.40;;;18.20;99.90;;;;;;5091772;28;20043;-76
2023/09/17 03:04:01;;;;;;;23.95;19.40;;;18.20;99.90;;;;;;5084483;28;20021;-75
2023/09/17 03:06:27;;;;;;;22.25;18.13;;;18.20;99.90;;;;;;5076229;28;20020;-75
2023/09/17 03:08:54;;;;;;;25.90;18.80;;;18.10;99.90;;;;;;5083481;28;20028;-75
2023/09/17 03:11:21;;;;;;;25.80;19.45;;;18.20;99.90;;;;;;5086336;28;20035;-75
2023/09/17 03:13:47;;;;;;;24.92;19.70;;;18.20;99.90;;;;;;5076931;28;20012;-75
2023/09/17 03:16:15;;;;;;;27.42;19.55;;;18.20;99.90;;;;;;5090444;28;20463;-75
2023/09/17 03:18:44;;;;;;;24.10;18.98;;;18.20;99.90;;;;;;5087965;28;20042;-75
2023/09/17 03:21:10;;;;;;;22.77;19.60;;;18.10;99.90;;;;;;5084628;28;20028;-75
2023/09/17 03:23:36;;;;;;;25.60;20.23;;;18.10;99.90;;;;;;5086099;28;20020;-75
2023/09/17 03:26:03;;;;;;;25.30;18.98;;;18.10;99.90;;;;;;5085323;28;20021;-75
2023/09/17 03:28:30;;;;;;;23.23;19.50;;;18.10;99.90;;;;;;5089995;28;20022;-75
2023/09/17 03:30:55;;;;;;;27.05;19.95;;;18.10;99.90;;;;;;5082087;28;20016;-75
2023/09/17 03:33:24;;;;;;;23.42;18.70;;;18.10;99.90;;;;;;5090136;28;20016;-75
2023/09/17 03:35:51;;;;;;;24.35;20.00;;;18.10;99.90;;;;;;5091254;28;20150;-75
2023/09/17 03:38:17;;;;;;;28.77;20.40;;;18.10;99.90;;;;;;5072346;28;20088;-75
2023/09/17 03:40:42;;;;;;;26.27;19.83;;;18.10;99.90;;;;;;5086216;28;20154;-75
2023/09/17 03:43:08;;;;;;;23.77;20.70;;;18.10;99.90;;;;;;5091266;28;20081;-75
2023/09/17 03:45:34;;;;;;;28.45;20.05;;;18.10;99.90;;;;;;5082556;28;20031;-75
2023/09/17 03:48:00;;;;;;;22.33;19.08;;;18.00;99.90;;;;;;5075681;28;20035;-75
2023/09/17 03:50:27;;;;;;;26.35;20.90;;;18.10;99.90;;;;;;5081035;28;20023;-75
2023/09/17 03:52:55;;;;;;;28.30;19.98;;;18.10;99.90;;;;;;5090735;28;20012;-75
2023/09/17 03:55:21;;;;;;;27.70;19.98;;;18.00;99.90;;;;;;5082551;28;20021;-75
2023/09/17 03:57:47;;;;;;;25.73;20.80;;;18.00;99.90;;;;;;5090788;28;20073;-75
2023/09/17 04:00:15;;;;;;;25.95;20.58;;;18.00;99.90;;;;;;5090146;28;20050;-75
2023/09/17 04:02:42;;;;;;;26.00;19.88;;;18.00;99.90;;;;;;5089708;28;20242;-75
2023/09/17 04:05:10;;;;;;;22.25;18.88;;;18.00;99.90;;;;;;5090473;28;20027;-75
2023/09/17 04:07:37;;;;;;;27.45;20.73;;;18.00;99.90;;;;;;5091697;28;20027;-75
2023/09/17 04:10:05;;;;;;;23.88;19.90;;;18.00;99.90;;;;;;5075991;28;20028;-75
2023/09/17 04:12:32;;;;;;;26.75;20.63;;;17.90;99.90;;;;;;5090587;28;20023;-75
2023/09/17 04:14:58;;;;;;;26.45;20.70;;;18.00;99.90;;;;;;5078025;28;20479;-75
2023/09/17 04:17:24;;;;;;;24.67;21.08;;;18.00;99.90;;;;;;5074767;28;20050;-75
2023/09/17 04:19:50;;;;;;;24.40;20.45;;;17.90;99.90;;;;;;5089872;28;20378;-75
2023/09/17 04:22:16;;;;;;;25.08;19.35;;;17.90;99.90;;;;;;5090745;28;20027;-75
2023/09/17 04:24:43;;;;;;;27.13;19.58;;;17.90;99.90;;;;;;5088425;28;20065;-76
2023/09/17 04:27:08;;;;;;;26.73;20.58;;;17.90;99.90;;;;;;5074978;28;20047;-75
2023/09/17 04:29:35;;;;;;;27.08;20.83;;;17.90;99.90;;;;;;5085584;28;20020;-75
2023/09/17 04:32:01;;;;;;;25.80;19.88;;;17.90;99.90;;;;;;5090477;28;20077;-75
2023/09/17 04:34:27;;;;;;;24.75;20.80;;;17.90;99.90;;;;;;5090251;28;20091;-75
2023/09/17 04:36:52;;;;;;;26.73;20.25;;;17.90;99.90;;;;;;5090273;28;20504;-75
2023/09/17 04:39:18;;;;;;;25.27;21.17;;;17.90;99.90;;;;;;5090255;28;20022;-75
2023/09/17 04:41:45;;;;;;;24.77;20.92;;;18.00;99.90;;;;;;5077482;28;20333;-75
2023/09/17 04:44:13;;;;;;;25.45;20.05;;;18.00;99.90;;;;;;5087759;28;20108;-75
2023/09/17 04:46:40;;;;;;;26.83;20.92;;;18.00;99.90;;;;;;5082893;28;20052;-75
2023/09/17 04:49:06;;;;;;;26.75;20.38;;;18.00;99.90;;;;;;5070345;28;20023;-75
2023/09/17 04:51:35;;;;;;;24.77;19.85;;;18.00;99.90;;;;;;5084007;28;20025;-75
2023/09/17 04:54:02;;;;;;;26.95;20.70;;;18.00;99.90;;;;;;5080401;28;20052;-75
2023/09/17 04:56:28;;;;;;;26.40;20.92;;;18.00;99.90;;;;;;5089696;28;20016;-75
2023/09/17 04:58:54;;;;;;;26.30;20.08;;;18.00;99.90;;;;;;5079837;28;20049;-75
2023/09/17 05:01:20;;;;;;;26.67;20.08;;;18.00;99.90;;;;;;5085704;28;20016;-75
2023/09/17 05:03:48;;;;;;;25.15;20.23;;;18.00;99.90;;;;;;5084641;28;20025;-75
2023/09/17 05:06:13;;;;;;;23.75;20.58;;;18.00;99.90;;;;;;5084849;28;20107;-76
2023/09/17 05:08:39;;;;;;;26.33;20.75;;;18.00;99.90;;;;;;5075624;28;20095;-75
2023/09/17 05:11:05;;;;;;;25.63;20.20;;;18.00;99.90;;;;;;5087276;28;20089;-75
2023/09/17 05:13:31;;;;;;;26.00;21.38;;;17.90;99.90;;;;;;5087823;28;20024;-75
2023/09/17 05:15:57;;;;;;;25.92;20.63;;;17.90;99.90;;;;;;5089400;28;20314;-75
2023/09/17 05:18:23;;;;;;;25.58;20.55;;;17.90;99.90;;;;;;5087328;28;20391;-75
2023/09/17 05:20:53;;;;;;;26.85;21.77;;;17.90;99.90;;;;;;5079508;28;20043;-75
2023/09/17 05:23:19;;;;;;;26.85;21.67;;;17.90;99.90;;;;;;5089559;28;20020;-75
2023/09/17 05:25:45;;;;;;;32.17;21.42;;;17.90;99.90;;;;;;5090118;28;20020;-75
2023/09/17 05:28:10;;;;;;;23.33;20.52;;;17.90;99.90;;;;;;5081021;28;20142;-75
2023/09/17 05:30:37;;;;;;;27.42;20.88;;;17.80;99.90;;;;;;5083923;28;20066;-75
2023/09/17 05:33:06;;;;;;;24.35;20.73;;;17.80;99.90;;;;;;5083422;28;20016;-75
2023/09/17 05:35:33;;;;;;;27.33;21.52;;;17.80;99.90;;;;;;5084065;28;20031;-75
2023/09/17 05:37:58;;;;;;;25.63;20.00;;;17.90;99.90;;;;;;5089618;28;20379;-76
2023/09/17 05:40:24;;;;;;;29.63;21.98;;;17.80;99.90;;;;;;5089205;28;20028;-75
2023/09/17 05:42:50;;;;;;;26.00;20.60;;;17.80;99.90;;;;;;5089500;28;20099;-75
2023/09/17 05:45:16;;;;;;;28.58;20.65;;;17.80;99.90;;;;;;5081544;28;20062;-75
2023/09/17 05:47:42;;;;;;;24.35;20.08;;;17.80;99.90;;;;;;5076934;28;20024;-75
2023/09/17 05:50:09;;;;;;;26.58;21.58;;;17.80;99.90;;;;;;5089838;28;20106;-76
2023/09/17 05:52:34;;;;;;;27.83;20.85;;;17.80;99.90;;;;;;5085975;28;20111;-75
2023/09/17 05:55:03;;;;;;;24.40;20.05;;;17.80;99.90;;;;;;5088245;28;20245;-75
2023/09/17 05:57:29;;;;;;;28.80;21.30;;;17.70;99.90;;;;;;5085458;28;20387;-74
2023/09/17 05:59:54;;;;;;;25.67;21.27;;;17.80;99.90;;;;;;5078958;28;20040;-75
2023/09/17 06:02:20;;;;;;;26.08;20.63;;;17.80;99.90;;;;;;5087367;28;20023;-75
2023/09/17 06:04:51;;;;;;;28.10;20.80;;;17.80;99.90;;;;;;5088014;28;20027;-75
2023/09/17 06:07:16;;;;;;;29.33;21.08;;;17.80;99.90;;;;;;5092868;28;20016;-75
2023/09/17 06:09:42;;;;;;;26.25;20.80;;;17.70;99.90;;;;;;5088663;28;20032;-76
2023/09/17 06:12:08;;;;;;;27.50;20.92;;;17.80;99.90;;;;;;5084676;28;20065;-76
2023/09/17 06:14:34;;;;;;;25.48;20.65;;;17.80;99.90;;;;;;5086466;28;20021;-76
2023/09/17 06:16:59;;;;;;;26.90;21.17;;;17.80;99.90;;;;;;5088792;28;20027;-75
2023/09/17 06:19:27;;;;;;;25.42;20.95;;;17.80;99.90;;;;;;5086031;28;20059;-76
2023/09/17 06:21:53;;;;;;;27.25;20.90;;;17.80;99.90;;;;;;5090778;28;20039;-76
2023/09/17 06:24:18;;;;;;;27.92;21.17;;;17.90;99.90;;;;;;5082047;28;20429;-75
2023/09/17 06:26:44;;;;;;;23.77;20.35;;;17.90;99.90;;;;;;5083471;28;20031;-76
2023/09/17 06:29:09;;;;;;;25.90;19.83;;;17.90;99.90;;;;;;5085472;28;20016;-76
2023/09/17 06:31:35;;;;;;;26.98;20.52;;;17.90;99.90;;;;;;5086236;28;20489;-75
2023/09/17 06:34:01;;;;;;;26.42;18.98;;;17.90;99.90;;;;;;5082874;28;20027;-76
2023/09/17 06:36:27;;;;;;;26.80;19.98;;;17.90;99.90;;;;;;5084123;28;20410;-75
2023/09/17 06:38:53;;;;;;;26.75;20.42;;;17.90;99.90;;;;;;5090080;28;20026;-75
2023/09/17 06:41:19;;;;;;;25.45;19.45;;;17.90;99.90;;;;;;5092388;28;20091;-75
2023/09/17 06:43:46;;;;;;;24.17;19.83;;;17.90;99.90;;;;;;5089265;28;20027;-75
2023/09/17 06:46:11;;;;;;;25.95;19.58;;;18.00;99.90;;;;;;5082283;28;20040;-75
2023/09/17 06:48:37;;;;;;;25.67;20.05;;;18.00;99.90;;;;;;5079060;28;20016;-75
2023/09/17 06:51:03;;;;;;;26.10;18.90;;;18.00;99.90;;;;;;5086425;28;20031;-75
2023/09/17 06:53:28;;;;;;;24.85;19.52;;;18.00;99.90;;;;;;5090914;28;20016;-74
2023/09/17 06:55:54;;;;;;;25.08;20.33;;;18.00;99.90;;;;;;5083250;28;20020;-75
2023/09/17 06:58:20;;;;;;;22.65;19.13;;;18.00;99.90;;;;;;5086158;28;20384;-77
2023/09/17 07:00:47;;;;;;;24.42;19.88;;;18.00;99.90;;;;;;5080538;28;20384;-76
2023/09/17 07:03:13;;;;;;;26.75;21.55;;;18.10;99.90;;;;;;5091599;28;20024;-76
2023/09/17 07:05:40;;;;;;;26.65;21.35;;;18.00;99.90;;;;;;5083777;28;20413;-76
2023/09/17 07:08:06;;;;;;;28.85;22.60;;;18.00;99.90;;;;;;5077833;28;20102;-77
2023/09/17 07:10:32;;;;;;;28.27;21.33;;;17.90;99.90;;;;;;5077242;28;20111;-77
2023/09/17 07:12:58;;;;;;;30.63;22.33;;;17.90;99.90;;;;;;5079388;28;20099;-77
2023/09/17 07:15:25;;;;;;;31.75;24.50;;;17.80;99.90;;;;;;5083177;28;20558;-77
2023/09/17 07:17:52;;;;;;;32.88;25.77;;;17.80;99.90;;;;;;5084340;28;20081;-77
2023/09/17 07:20:19;;;;;;;32.70;24.83;;;17.70;99.90;;;;;;5080633;28;20031;-77
2023/09/17 07:22:46;;;;;;;33.15;25.30;;;17.70;99.90;;;;;;5074854;28;20028;-77
2023/09/17 07:25:12;;;;;;;35.05;26.00;;;17.60;99.90;;;;;;5077010;28;20019;-77
2023/09/17 07:27:38;;;;;;;32.55;25.67;;;17.60;99.90;;;;;;5072661;28;20095;-77
2023/09/17 07:30:05;;;;;;;33.45;26.52;;;17.50;99.90;;;;;;5092154;28;20016;-78
2023/09/17 07:32:31;;;;;;;33.88;26.85;;;17.50;99.90;;;;;;5085642;28;20020;-78
2023/09/17 07:34:57;;;;;;;36.35;27.40;;;17.50;99.90;;;;;;5088231;28;20038;-78
2023/09/17 07:37:23;;;;;;;34.95;27.08;;;17.50;99.90;;;;;;5077436;28;21180;-77
2023/09/17 07:39:55;;;;;;;36.83;26.02;;;17.40;99.90;;;;;;5089718;28;20107;-77
2023/09/17 07:42:21;;;;;;;33.90;27.35;;;17.40;99.90;;;;;;5086669;28;20039;-77
2023/09/17 07:44:47;;;;;;;31.13;24.30;;;17.40;99.90;;;;;;5086369;28;20471;-77
2023/09/17 07:47:12;;;;;;;31.48;24.80;;;17.40;99.90;;;;;;5080586;28;20028;-77
2023/09/17 07:49:38;;;;;;;30.60;24.27;;;17.40;99.90;;;;;;5075528;28;20058;-76
2023/09/17 07:52:05;;;;;;;30.00;23.75;;;17.30;99.90;;;;;;5081953;28;20033;-77
2023/09/17 07:54:40;;;;;;;29.60;22.73;;;17.30;99.90;;;;;;5080663;28;20493;-76
2023/09/17 07:57:07;;;;;;;27.75;21.52;;;17.30;99.90;;;;;;5080701;28;20036;-76
2023/09/17 07:59:33;;;;;;;29.95;22.15;;;17.20;99.90;;;;;;5082896;28;20109;-75
2023/09/17 08:01:59;;;;;;;28.58;22.20;;;17.20;99.90;;;;;;5076298;28;20028;-76
2023/09/17 08:04:25;;;;;;;29.70;22.70;;;17.20;99.90;;;;;;5089764;28;20008;-77
2023/09/17 08:06:51;;;;;;;27.25;21.42;;;17.20;99.90;;;;;;5091125;28;20036;-76
2023/09/17 08:09:17;;;;;;;25.95;20.73;;;17.20;99.90;;;;;;5088364;28;20470;-76
2023/09/17 08:11:43;;;;;;;26.83;21.05;;;17.10;99.90;;;;;;5089442;28;20028;-76
2023/09/17 08:14:12;;;;;;;27.83;20.92;;;17.10;99.90;;;;;;5085743;28;20031;-76
2023/09/17 08:16:38;;;;;;;27.85;22.20;;;17.10;99.90;;;;;;5077630;28;20107;-77
2023/09/17 08:19:04;;;;;;;28.85;22.08;;;17.10;99.90;;;;;;5080363;28;20020;-77
2023/09/17 08:21:30;;;;;;;27.90;21.80;;;17.10;99.90;;;;;;5078604;28;20475;-74
2023/09/17 08:23:56;;;;;;;28.70;21.17;;;17.20;99.90;;;;;;5077242;28;20017;-75
2023/09/17 08:26:22;;;;;;;28.90;21.52;;;17.20;99.90;;;;;;5076151;28;20029;-75
2023/09/17 08:28:51;;;;;;;27.23;21.30;;;17.20;99.90;;;;;;5074704;28;20028;-75
2023/09/17 08:31:17;;;;;;;30.50;22.83;;;17.20;99.90;;;;;;5075091;28;20063;-75
2023/09/17 08:33:45;;;;;;;29.90;22.83;;;17.20;99.90;;;;;;5083018;28;20044;-75
2023/09/17 08:36:11;;;;;;;29.85;22.65;;;17.30;99.90;;;;;;5082830;28;20044;-75
2023/09/17 08:38:37;;;;;;;29.95;22.08;;;17.30;99.90;;;;;;5069980;28;20090;-75
2023/09/17 08:41:05;;;;;;;28.42;21.25;;;17.30;99.90;;;;;;5084078;28;20016;-76
2023/09/17 08:43:31;;;;;;;30.20;21.80;;;17.30;99.90;;;;;;5082463;28;20021;-72
2023/09/17 08:45:59;;;;;;;25.60;20.48;;;17.40;99.90;;;;;;5084469;28;20523;-76
2023/09/17 08:48:25;;;;;;;28.15;21.10;;;17.40;99.90;;;;;;5076249;28;20074;-76
2023/09/17 08:50:53;;;;;;;26.10;20.25;;;17.40;99.90;;;;;;5081548;28;20028;-76
2023/09/17 08:53:26;;;;;;;27.95;20.60;;;17.40;99.90;;;;;;5076879;28;20023;-76
2023/09/17 08:55:56;;;;;;;25.45;19.13;;;17.40;99.90;;;;;;5090266;28;20028;-76
2023/09/17 08:58:31;;;;;;;24.73;20.25;;;17.40;99.90;;;;;;5082073;28;20040;-76
2023/09/17 09:01:01;;;;;;;27.40;20.92;;;17.50;99.90;;;;;;5087549;28;20028;-75
2023/09/17 09:03:28;;;;;;;27.67;21.05;;;17.40;99.90;;;;;;5076480;28;20112;-75
2023/09/17 09:05:56;;;;;;;26.10;19.60;;;17.50;99.90;;;;;;5089498;28;20065;-75
2023/09/17 09:08:23;;;;;;;24.23;19.15;;;17.50;99.90;;;;;;5083706;28;20530;-75
2023/09/17 09:10:50;;;;;;;26.35;20.30;;;17.50;99.90;;;;;;5088324;28;20528;-75
2023/09/17 09:13:18;;;;;;;26.10;21.00;;;17.50;99.90;;;;;;5089719;28;20036;-75
2023/09/17 09:15:45;;;;;;;29.52;22.08;;;17.50;99.90;;;;;;5081925;28;20472;-76
2023/09/17 09:18:11;;;;;;;28.02;21.02;;;17.40;99.90;;;;;;5069895;28;20032;-75
2023/09/17 09:20:39;;;;;;;28.50;22.08;;;17.40;99.90;;;;;;5076386;28;20606;-75
2023/09/17 09:23:05;;;;;;;30.70;22.45;;;17.40;99.90;;;;;;5090578;28;20024;-75
2023/09/17 09:25:31;;;;;;;31.45;23.20;;;17.50;99.90;;;;;;5079777;28;20020;-75
2023/09/17 09:28:03;;;;;;;28.88;21.95;;;17.40;99.90;;;;;;5092298;28;20028;-75
2023/09/17 09:30:28;;;;;;;30.60;23.15;;;17.50;99.90;;;;;;5090717;28;20020;-75
2023/09/17 09:32:55;;;;;;;33.83;23.63;;;17.60;99.90;;;;;;5092413;28;20021;-75
2023/09/17 09:35:21;;;;;;;29.98;22.55;;;17.60;99.90;;;;;;5090007;28;20020;-75
2023/09/17 09:37:48;;;;;;;30.25;22.75;;;17.70;99.90;;;;;;5087588;28;20024;-76
2023/09/17 09:40:14;;;;;;;29.38;22.17;;;17.70;99.90;;;;;;5080134;28;20032;-75
2023/09/17 09:42:42;;;;;;;27.95;22.13;;;17.70;99.90;;;;;;5084697;28;20491;-75
2023/09/17 09:45:17;;;;;;;28.73;21.70;;;17.80;99.90;;;;;;5076826;28;20492;-75
2023/09/17 09:47:50;;;;;;;28.15;22.17;;;17.80;99.90;;;;;;5076349;28;20031;-77
2023/09/17 09:50:26;;;;;;;30.05;22.65;;;17.90;99.90;;;;;;5084621;28;20020;-75
2023/09/17 09:52:53;;;;;;;27.80;21.63;;;18.00;99.90;;;;;;5090405;28;20032;-75
2023/09/17 09:55:23;;;;;;;28.90;21.05;;;18.00;99.90;;;;;;5077813;28;20032;-76
2023/09/17 09:57:49;;;;;;;25.17;19.90;;;18.10;99.90;;;;;;5085087;28;20021;-76
2023/09/17 10:00:15;;;;;;;26.63;19.20;;;18.10;99.90;;;;;;5072170;28;20044;-76
2023/09/17 10:02:43;;;;;;;28.23;20.10;;;18.20;99.90;;;;;;5085551;28;20025;-75
2023/09/17 10:05:12;;;;;;;25.80;18.77;;;18.20;99.90;;;;;;5092555;28;20012;-75
2023/09/17 10:07:39;;;;;;;24.65;18.30;;;18.30;99.90;;;;;;5080203;28;20025;-76
2023/09/17 10:10:05;;;;;;;27.27;18.35;;;18.30;99.90;;;;;;5084201;28;20017;-74
2023/09/17 10:12:31;;;;;;;22.65;17.90;;;18.30;99.90;;;;;;5072820;28;20092;-74
2023/09/17 10:14:56;;;;;;;25.70;18.52;;;18.40;99.90;;;;;;5088904;28;20454;-73
2023/09/17 10:17:23;;;;;;;26.90;18.63;;;18.40;99.90;;;;;;5076664;28;20097;-73
2023/09/17 10:19:49;;;;;;;25.30;17.60;;;18.40;99.90;;;;;;5079196;28;20101;-73
2023/09/17 10:22:15;;;;;;;24.00;17.90;;;18.40;99.90;;;;;;5072996;28;20357;-73
2023/09/17 10:24:42;;;;;;;23.90;18.33;;;18.50;99.90;;;;;;5084535;28;20016;-74
2023/09/17 10:27:08;;;;;;;24.42;18.35;;;18.50;99.90;;;;;;5086914;28;20048;-74
2023/09/17 10:29:35;;;;;;;27.13;18.88;;;18.50;99.90;;;;;;5085701;28;20655;-74
2023/09/17 10:32:06;;;;;;;26.10;18.83;;;18.60;99.90;;;;;;5074935;28;20021;-74
2023/09/17 10:34:33;;;;;;;26.85;18.85;;;18.60;99.90;;;;;;5083865;28;20494;-73
2023/09/17 10:37:05;;;;;;;27.80;18.75;;;18.50;99.90;;;;;;5075681;28;20024;-72
2023/09/17 10:39:33;;;;;;;26.38;19.27;;;18.50;99.90;;;;;;5083203;28;20494;-73
2023/09/17 10:42:02;;;;;;;28.70;20.15;;;18.60;99.90;;;;;;5079824;28;20020;-73
2023/09/17 10:44:29;;;;;;;27.83;20.20;;;18.60;99.90;;;;;;5082020;28;20023;-75
2023/09/17 10:46:59;;;;;;;27.83;20.48;;;18.60;99.90;;;;;;5083901;28;20123;-75
2023/09/17 10:49:26;;;;;;;26.75;19.60;;;18.60;99.90;;;;;;5077784;28;20019;-75
2023/09/17 10:51:53;;;;;;;30.02;19.83;;;18.70;99.90;;;;;;5082431;28;20422;-75
2023/09/17 10:54:19;;;;;;;28.00;19.13;;;18.70;99.90;;;;;;5078917;28;20009;-75
2023/09/17 10:56:45;;;;;;;26.23;18.40;;;18.80;99.90;;;;;;5084120;28;20395;-75
2023/09/17 10:59:14;;;;;;;24.95;17.83;;;18.80;99.90;;;;;;5091591;28;20142;-74
2023/09/17 11:01:42;;;;;;;24.55;17.77;;;18.80;99.90;;;;;;5084293;28;20028;-74
2023/09/17 11:04:13;;;;;;;26.45;18.25;;;18.90;99.90;;;;;;5083681;28;20017;-75
2023/09/17 11:06:41;;;;;;;30.48;19.67;;;18.90;99.90;;;;;;5079512;28;20079;-76
2023/09/17 11:09:07;;;;;;;28.42;19.35;;;18.90;99.90;;;;;;5085163;28;20117;-75
2023/09/17 11:11:37;;;;;;;33.47;20.08;;;19.00;99.90;;;;;;5086699;28;20530;-75
2023/09/17 11:14:05;;;;;;;30.10;20.08;;;19.00;99.90;;;;;;5072500;28;20033;-75
2023/09/17 11:16:34;;;;;;;32.53;21.27;;;19.00;99.90;;;;;;5090042;28;20030;-75
2023/09/17 11:19:20;;;;;;;29.10;20.00;;;19.00;99.90;;;;;;5088742;28;20028;-76
2023/09/17 11:22:06;;;;;;;27.88;19.67;;;19.10;99.90;;;;;;5090114;28;20056;-76
2023/09/17 11:24:33;;;;;;;30.88;20.50;;;19.10;99.90;;;;;;5091701;28;20047;-73
2023/09/17 11:27:01;;;;;;;32.03;20.63;;;19.10;99.90;;;;;;5071720;28;20058;-74
2023/09/17 11:29:41;;;;;;;31.42;20.77;;;19.20;99.90;;;;;;5075289;28;20542;-74
2023/09/17 11:32:07;;;;;;;31.58;21.02;;;19.20;99.90;;;;;;5076059;28;20411;-74
2023/09/17 11:34:39;;;;;;;33.97;21.80;;;19.20;99.90;;;;;;5078134;28;20024;-75
2023/09/17 11:37:05;;;;;;;32.08;22.15;;;19.30;99.90;;;;;;5081488;28;20051;-75
2023/09/17 11:39:33;;;;;;;31.23;20.85;;;19.40;99.90;;;;;;5081215;28;20493;-74
2023/09/17 11:42:05;;;;;;;32.35;21.63;;;19.40;99.90;;;;;;5088671;28;20117;-75
2023/09/17 11:44:36;;;;;;;32.58;21.23;;;19.40;99.90;;;;;;5082047;28;20020;-75
2023/09/17 11:47:04;;;;;;;30.42;20.92;;;19.40;99.90;;;;;;5081176;28;20028;-75
2023/09/17 11:49:31;;;;;;;32.92;21.60;;;19.40;99.90;;;;;;5078643;28;20482;-74
2023/09/17 11:51:59;;;;;;;33.72;21.67;;;19.40;99.90;;;;;;5070501;28;20476;-74
2023/09/17 11:54:33;;;;;;;32.83;21.50;;;19.40;99.90;;;;;;5075064;28;20504;-74
2023/09/17 11:56:59;;;;;;;32.55;21.13;;;19.40;99.90;;;;;;5080929;28;20039;-74
2023/09/17 11:59:26;;;;;;;34.03;21.63;;;19.40;99.90;;;;;;5083340;28;20045;-74
2023/09/17 12:01:57;;;;;;;32.17;22.13;;;19.40;99.90;;;;;;5079634;28;20024;-73
2023/09/17 12:04:30;;;;;;;34.20;22.58;;;19.40;99.90;;;;;;5079409;28;20379;-72
2023/09/17 12:06:57;;;;;;;35.63;22.63;;;19.50;99.90;;;;;;5084749;28;20058;-75
2023/09/17 12:11:56;;;;;;;38.05;24.45;;;19.50;99.90;;;;;;5076624;28;20024;-73
2023/09/17 12:14:25;;;;;;;38.90;24.50;;;19.50;99.90;;;;;;5081314;28;20031;-75
2023/09/17 12:16:52;;;;;;;41.08;24.92;;;19.50;99.90;;;;;;5081212;28;20051;-75
2023/09/17 12:19:19;;;;;;;36.13;25.25;;;19.50;99.90;;;;;;5082503;28;20047;-75
2023/09/17 12:21:50;;;;;;;37.58;25.67;;;19.50;99.90;;;;;;5095305;28;20027;-74
2023/09/17 12:25:13;;;;;;;41.50;24.90;;;19.50;99.90;;;;;;5091107;28;20078;-73
2023/09/17 12:27:43;;;;;;;40.03;25.67;;;19.50;99.90;;;;;;5085194;28;20427;-75
2023/09/17 12:30:11;;;;;;;42.15;25.80;;;19.50;99.90;;;;;;5089780;28;20031;-76
2023/09/17 12:32:36;;;;;;;40.00;26.15;;;19.60;99.90;;;;;;5079269;28;20421;-70